Time;durP1;ratioP1;P1;durP2;ratioP2;P2;SDS_P1;SDS_P2;PMS_P1;PMS_P2;Temp;Humidity;BMP_temperature;BMP_pressure;BME280_temperature;BME280_humidity;BME280_pressure;Samples;Min_cycle;Max_cycle;Signal;HPM_P1;HPM_P2
2022/10/02 00:00:35;;;;;;;3.80;1.33;;;12.50;99.80;;;;;;4966170;29;20645;-85
2022/10/02 00:03:08;;;;;;;2.78;1.10;;;12.50;99.80;;;;;;4959192;29;20224;-85
2022/10/02 00:05:42;;;;;;;1.75;1.00;;;12.40;99.90;;;;;;4995540;28;20680;-86
2022/10/02 00:08:16;;;;;;;1.75;1.00;;;12.40;99.90;;;;;;5044329;28;20201;-85
2022/10/02 00:10:47;;;;;;;3.72;1.30;;;12.40;99.90;;;;;;5043903;28;20217;-87
2022/10/02 00:13:20;;;;;;;3.05;1.30;;;12.40;99.90;;;;;;5042659;28;20187;-85
2022/10/02 00:15:49;;;;;;;1.63;0.90;;;12.30;99.90;;;;;;5046751;28;20197;-86
2022/10/02 00:18:20;;;;;;;3.63;1.50;;;12.30;99.90;;;;;;5044146;28;20305;-86
2022/10/02 00:21:06;;;;;;;1.55;0.90;;;12.30;99.90;;;;;;5044368;28;20211;-86
2022/10/02 00:23:53;;;;;;;2.03;0.90;;;12.30;99.90;;;;;;5045250;28;20214;-85
2022/10/02 00:26:26;;;;;;;2.25;1.02;;;12.40;99.90;;;;;;5044937;28;20741;-86
2022/10/02 00:29:03;;;;;;;3.35;1.30;;;12.40;99.90;;;;;;5045883;28;20281;-85
2022/10/02 00:31:40;;;;;;;3.17;1.50;;;12.40;99.90;;;;;;5046255;28;20255;-86
2022/10/02 00:34:22;;;;;;;3.42;1.38;;;12.40;99.90;;;;;;5046634;28;20198;-86
2022/10/02 00:36:58;;;;;;;2.97;1.33;;;12.30;99.90;;;;;;5042755;28;20217;-86
2022/10/02 00:39:46;;;;;;;3.83;1.40;;;12.30;99.90;;;;;;5043530;28;20245;-86
2022/10/02 00:42:43;;;;;;;2.63;1.30;;;12.20;99.90;;;;;;5046642;28;20205;-86
2022/10/02 00:45:36;;;;;;;3.58;1.20;;;12.10;99.90;;;;;;5045933;28;20222;-86
2022/10/02 00:48:30;;;;;;;3.72;1.40;;;12.10;99.90;;;;;;5045498;28;20234;-87
2022/10/02 00:51:08;;;;;;;1.90;0.98;;;12.00;99.90;;;;;;5047284;28;20604;-86
2022/10/02 00:53:49;;;;;;;4.10;1.20;;;12.00;99.90;;;;;;5046613;28;20198;-86
2022/10/02 00:56:27;;;;;;;4.72;1.20;;;12.00;99.90;;;;;;5045627;28;20628;-86
2022/10/02 00:59:43;;;;;;;3.95;1.23;;;12.00;99.90;;;;;;5046281;28;20760;-86
2022/10/02 01:02:47;;;;;;;3.63;1.35;;;12.00;99.90;;;;;;5040663;28;20229;-87
2022/10/02 01:05:33;;;;;;;2.15;1.20;;;12.00;99.90;;;;;;4965676;28;20259;-88
2022/10/02 01:08:08;;;;;;;3.53;1.35;;;12.00;99.90;;;;;;5039886;28;20202;-86
2022/10/02 01:10:44;;;;;;;2.40;1.17;;;12.00;99.90;;;;;;5045162;28;20197;-86
2022/10/02 01:13:13;;;;;;;1.70;1.08;;;12.00;99.90;;;;;;5044935;28;20226;-86
2022/10/02 01:15:53;;;;;;;3.67;1.23;;;12.00;99.90;;;;;;5046269;28;20195;-85
2022/10/02 01:18:27;;;;;;;1.98;1.10;;;12.00;99.90;;;;;;5044226;28;20210;-87
2022/10/02 01:20:59;;;;;;;1.98;1.80;;;12.00;99.90;;;;;;5039933;28;20290;-86
2022/10/02 01:23:32;;;;;;;3.45;1.30;;;12.00;99.90;;;;;;5027249;28;20254;-86
2022/10/02 01:26:27;;;;;;;3.08;1.45;;;12.00;99.90;;;;;;5047833;28;20266;-86
2022/10/02 01:28:57;;;;;;;1.95;1.40;;;11.90;99.90;;;;;;5044672;28;20279;-86
2022/10/02 01:31:36;;;;;;;5.03;1.50;;;11.90;99.90;;;;;;5030115;28;20270;-86
2022/10/02 01:34:09;;;;;;;3.22;1.30;;;11.90;99.90;;;;;;5052538;28;20202;-85
2022/10/02 01:36:38;;;;;;;3.40;1.60;;;11.90;99.90;;;;;;5050843;28;20234;-86
2022/10/02 01:39:26;;;;;;;3.78;1.27;;;12.00;99.90;;;;;;5049438;28;20744;-86
2022/10/02 01:42:10;;;;;;;2.65;1.30;;;12.00;99.90;;;;;;5042253;28;20202;-86
2022/10/02 01:44:55;;;;;;;5.90;1.30;;;12.00;99.90;;;;;;5041110;28;20195;-86
2022/10/02 01:47:32;;;;;;;2.10;1.10;;;12.00;99.90;;;;;;5034341;28;20280;-85
2022/10/02 01:50:12;;;;;;;2.67;1.10;;;12.10;99.90;;;;;;5036435;28;20229;-86
2022/10/02 01:52:49;;;;;;;3.45;1.50;;;12.10;99.90;;;;;;5042866;28;20238;-85
2022/10/02 01:55:31;;;;;;;2.38;1.30;;;12.20;99.90;;;;;;5040760;28;20233;-85
2022/10/02 01:58:18;;;;;;;2.95;1.40;;;12.30;99.90;;;;;;5046548;28;20245;-85
2022/10/02 02:00:57;;;;;;;2.67;1.23;;;12.20;99.90;;;;;;5043374;28;20281;-86
2022/10/02 02:03:38;;;;;;;1.85;1.52;;;12.10;99.90;;;;;;5047806;28;20204;-85
2022/10/02 02:06:14;;;;;;;2.08;1.30;;;12.10;99.90;;;;;;5050002;28;20286;-86
2022/10/02 02:08:49;;;;;;;2.28;1.23;;;12.10;99.90;;;;;;5044461;28;20194;-85
2022/10/02 02:11:18;;;;;;;2.65;1.35;;;12.00;99.90;;;;;;5048026;28;20205;-86
2022/10/02 02:13:55;;;;;;;2.30;1.30;;;12.00;99.90;;;;;;5042578;28;20212;-85
2022/10/02 02:16:31;;;;;;;2.88;1.35;;;11.90;99.90;;;;;;5036113;28;20190;-85
2022/10/02 02:19:07;;;;;;;3.25;1.20;;;11.90;99.90;;;;;;5047843;28;20240;-86
2022/10/02 02:21:39;;;;;;;5.13;1.40;;;11.80;99.90;;;;;;5046709;28;20305;-85
2022/10/02 02:24:28;;;;;;;4.72;1.50;;;11.90;99.90;;;;;;5049103;28;20297;-86
2022/10/02 02:27:11;;;;;;;5.40;1.30;;;11.90;99.90;;;;;;5048151;28;20218;-85
2022/10/02 02:29:43;;;;;;;6.03;1.27;;;11.90;99.90;;;;;;5036523;28;20729;-86
2022/10/02 02:32:14;;;;;;;4.47;1.58;;;11.80;99.90;;;;;;5051394;28;20282;-86
2022/10/02 02:34:47;;;;;;;2.45;0.95;;;11.80;99.90;;;;;;5046527;28;20289;-86
2022/10/02 02:37:18;;;;;;;3.30;1.27;;;11.90;99.90;;;;;;5045708;28;20639;-86
2022/10/02 02:39:53;;;;;;;10.90;1.30;;;11.90;99.90;;;;;;5045907;28;20272;-86
2022/10/02 02:42:22;;;;;;;3.90;1.13;;;11.90;99.90;;;;;;5048322;28;20278;-85
2022/10/02 02:44:56;;;;;;;4.88;1.70;;;11.90;99.90;;;;;;5042373;28;20203;-86
2022/10/02 02:47:32;;;;;;;4.05;1.45;;;11.90;99.90;;;;;;5046553;28;20210;-86
2022/10/02 02:50:07;;;;;;;4.20;1.30;;;11.80;99.90;;;;;;5042687;28;20266;-85
2022/10/02 02:52:56;;;;;;;3.40;1.30;;;11.90;99.90;;;;;;5040729;28;20229;-85
2022/10/02 02:55:43;;;;;;;3.10;1.15;;;11.90;99.90;;;;;;5043783;28;20282;-85
2022/10/02 02:58:14;;;;;;;1.65;1.10;;;11.90;99.90;;;;;;5044636;28;20275;-86
2022/10/02 03:00:45;;;;;;;3.15;1.13;;;12.00;99.90;;;;;;5042799;28;20269;-86
2022/10/02 03:03:14;;;;;;;4.28;1.33;;;12.00;99.90;;;;;;5050175;28;20194;-86
2022/10/02 03:05:45;;;;;;;4.47;1.13;;;12.00;99.90;;;;;;5055006;28;20272;-85
2022/10/02 03:08:25;;;;;;;4.15;1.30;;;12.00;99.90;;;;;;5053523;28;20202;-86
2022/10/02 03:11:05;;;;;;;3.25;1.27;;;12.00;99.90;;;;;;5054862;28;20226;-86
2022/10/02 03:13:44;;;;;;;3.03;1.50;;;12.00;99.90;;;;;;5042954;28;20208;-86
2022/10/02 03:16:39;;;;;;;3.97;1.35;;;12.00;99.90;;;;;;5032451;28;20209;-85
2022/10/02 03:19:21;;;;;;;2.40;1.10;;;12.10;99.90;;;;;;5048289;28;20301;-86
2022/10/02 03:21:59;;;;;;;4.20;1.33;;;12.00;99.90;;;;;;5059179;28;20210;-86
2022/10/02 03:24:32;;;;;;;4.35;1.40;;;12.00;99.90;;;;;;5052206;28;20214;-87
2022/10/02 03:27:05;;;;;;;4.25;1.38;;;12.00;99.90;;;;;;5047741;28;20289;-86
2022/10/02 03:29:47;;;;;;;5.03;1.30;;;12.00;99.90;;;;;;5058014;28;20225;-86
2022/10/02 03:32:18;;;;;;;4.13;1.45;;;12.00;99.90;;;;;;5046374;28;20274;-86
2022/10/02 03:34:57;;;;;;;3.00;1.20;;;12.00;99.90;;;;;;5047440;28;20270;-85
2022/10/02 03:37:27;;;;;;;3.20;1.25;;;12.00;99.90;;;;;;5044262;28;20205;-87
2022/10/02 03:39:58;;;;;;;3.80;1.38;;;11.90;99.90;;;;;;5031494;28;20233;-86
2022/10/02 03:42:28;;;;;;;3.70;1.20;;;11.90;99.90;;;;;;5030937;28;20210;-85
2022/10/02 03:44:54;;;;;;;3.60;1.20;;;11.90;99.90;;;;;;5041151;28;20267;-85
2022/10/02 03:47:34;;;;;;;5.13;1.30;;;11.90;99.90;;;;;;5062393;28;20650;-86
2022/10/02 03:50:25;;;;;;;4.45;1.52;;;11.90;99.90;;;;;;5037958;28;20309;-85
2022/10/02 03:53:06;;;;;;;6.40;1.17;;;12.00;99.90;;;;;;5049790;28;20214;-86
2022/10/02 03:55:41;;;;;;;3.58;1.33;;;12.00;99.90;;;;;;5046135;28;20202;-85
2022/10/02 03:58:26;;;;;;;3.55;1.25;;;12.00;99.90;;;;;;5055424;28;20553;-86
2022/10/02 04:01:02;;;;;;;3.28;1.30;;;12.00;99.90;;;;;;5035234;28;20273;-86
2022/10/02 04:03:47;;;;;;;5.90;1.30;;;12.00;99.90;;;;;;5049328;28;20202;-87
2022/10/02 04:06:36;;;;;;;7.20;1.30;;;12.00;99.90;;;;;;5043487;28;20545;-86
2022/10/02 04:09:06;;;;;;;2.67;1.25;;;12.00;99.90;;;;;;5043802;28;21767;-86
2022/10/02 04:11:57;;;;;;;2.35;1.08;;;12.00;99.90;;;;;;5044546;28;20655;-86
2022/10/02 04:14:32;;;;;;;2.85;1.17;;;12.00;99.90;;;;;;5055520;28;20268;-86
2022/10/02 04:17:08;;;;;;;4.72;1.65;;;12.00;99.90;;;;;;5051201;28;20233;-86
2022/10/02 04:19:42;;;;;;;5.00;1.35;;;12.00;99.90;;;;;;5054280;28;20268;-86
2022/10/02 04:22:17;;;;;;;3.67;1.27;;;12.00;99.90;;;;;;5047660;28;20217;-86
2022/10/02 04:25:02;;;;;;;3.38;1.27;;;12.00;99.90;;;;;;5044758;28;20221;-86
2022/10/02 04:27:36;;;;;;;4.65;1.33;;;12.00;99.90;;;;;;5043990;28;20277;-85
2022/10/02 04:30:06;;;;;;;2.38;1.38;;;12.10;99.90;;;;;;5043112;28;20230;-86
2022/10/02 04:32:35;;;;;;;3.88;1.38;;;12.00;99.90;;;;;;5046081;28;20285;-86
2022/10/02 04:35:20;;;;;;;4.22;1.30;;;12.00;99.90;;;;;;5039017;28;20222;-85
2022/10/02 04:38:08;;;;;;;3.50;1.38;;;12.00;99.90;;;;;;5019381;28;20205;-86
2022/10/02 04:41:04;;;;;;;4.75;1.40;;;12.00;99.90;;;;;;5038867;28;20211;-86
2022/10/02 04:43:45;;;;;;;3.42;1.33;;;12.10;99.90;;;;;;5040804;28;20297;-86
2022/10/02 04:46:28;;;;;;;2.92;1.20;;;12.10;99.90;;;;;;5034116;28;20254;-86
2022/10/02 04:49:11;;;;;;;6.40;1.40;;;12.10;99.90;;;;;;5040591;28;20198;-86
2022/10/02 04:52:01;;;;;;;2.88;1.30;;;12.10;99.90;;;;;;5045861;28;20290;-85
2022/10/02 04:54:56;;;;;;;2.10;1.40;;;12.10;99.90;;;;;;5044907;28;20197;-85
2022/10/02 04:58:08;;;;;;;4.15;1.40;;;12.10;99.90;;;;;;5040131;28;20226;-85
2022/10/02 05:00:42;;;;;;;4.93;1.50;;;12.10;99.90;;;;;;5032991;28;20222;-85
2022/10/02 05:03:36;;;;;;;5.65;1.40;;;12.10;99.90;;;;;;5035126;28;20218;-84
2022/10/02 05:06:27;;;;;;;4.20;1.58;;;12.10;99.90;;;;;;5037736;28;20214;-85
2022/10/02 05:09:17;;;;;;;3.33;1.20;;;12.10;99.90;;;;;;5043552;28;20213;-85
2022/10/02 05:12:05;;;;;;;5.32;1.20;;;12.10;99.90;;;;;;5043995;28;20258;-85
2022/10/02 05:15:22;;;;;;;2.13;1.33;;;12.10;99.90;;;;;;5037540;28;20706;-85
2022/10/02 05:18:11;;;;;;;3.13;1.30;;;12.10;99.90;;;;;;4998120;28;20301;-85
2022/10/02 05:20:56;;;;;;;3.55;1.33;;;12.10;99.90;;;;;;5038873;28;20257;-85
2022/10/02 05:23:54;;;;;;;2.88;1.55;;;12.10;99.90;;;;;;5034136;28;20282;-84
2022/10/02 05:26:58;;;;;;;3.75;1.80;;;12.10;99.90;;;;;;5035359;28;20257;-85
2022/10/02 05:30:03;;;;;;;5.50;1.50;;;12.10;99.90;;;;;;5043478;28;20194;-85
2022/10/02 05:32:59;;;;;;;5.35;1.52;;;12.10;99.90;;;;;;5039769;28;20199;-85
2022/10/02 05:35:46;;;;;;;5.05;1.73;;;12.10;99.90;;;;;;5044254;28;20243;-87
2022/10/02 05:38:23;;;;;;;3.88;1.38;;;12.10;99.90;;;;;;5035531;28;20186;-85
2022/10/02 05:41:00;;;;;;;5.53;1.70;;;12.10;99.90;;;;;;5041946;28;20225;-85
2022/10/02 05:43:42;;;;;;;2.88;1.30;;;12.20;99.90;;;;;;5036199;28;20258;-85
2022/10/02 05:46:14;;;;;;;5.15;2.20;;;12.20;99.90;;;;;;5040519;28;20286;-86
2022/10/02 05:48:47;;;;;;;5.35;1.52;;;12.20;99.90;;;;;;5042201;28;20202;-85
2022/10/02 05:51:21;;;;;;;5.97;1.90;;;12.20;99.90;;;;;;5043536;28;20274;-85
2022/10/02 05:53:52;;;;;;;5.10;1.45;;;12.20;99.90;;;;;;5043885;28;20197;-85
2022/10/02 05:56:24;;;;;;;4.22;1.60;;;12.20;99.90;;;;;;5039105;28;20226;-85
2022/10/02 05:59:14;;;;;;;4.22;1.60;;;12.20;99.90;;;;;;5041714;28;20225;-85
2022/10/02 06:01:44;;;;;;;5.63;1.60;;;12.20;99.90;;;;;;5043853;28;20248;-85
2022/10/02 06:04:15;;;;;;;2.22;1.48;;;12.20;99.90;;;;;;5043388;28;20218;-85
2022/10/02 06:06:47;;;;;;;3.85;1.70;;;12.30;99.90;;;;;;5040927;28;20194;-84
2022/10/02 06:09:24;;;;;;;6.15;1.60;;;12.40;99.90;;;;;;5043265;28;20209;-85
2022/10/02 06:11:58;;;;;;;2.83;1.25;;;12.30;99.90;;;;;;5045594;28;20222;-84
2022/10/02 06:14:44;;;;;;;7.13;1.80;;;12.30;99.90;;;;;;5046800;28;20194;-85
2022/10/02 06:17:18;;;;;;;4.45;1.92;;;12.30;99.90;;;;;;5041809;28;20229;-85
2022/10/02 06:20:01;;;;;;;4.53;1.50;;;12.40;99.90;;;;;;5045353;28;20260;-85
2022/10/02 06:22:41;;;;;;;2.30;1.40;;;12.40;99.90;;;;;;5046384;28;20202;-85
2022/10/02 06:25:13;;;;;;;5.97;1.73;;;12.40;99.90;;;;;;5045266;28;20201;-85
2022/10/02 06:27:48;;;;;;;3.20;1.65;;;12.40;99.90;;;;;;5040306;28;20365;-85
2022/10/02 06:30:18;;;;;;;6.45;1.77;;;12.40;99.90;;;;;;5046267;28;20281;-85
2022/10/02 06:32:55;;;;;;;4.78;1.58;;;12.40;99.90;;;;;;5044822;28;20264;-84
2022/10/02 06:35:41;;;;;;;6.68;2.40;;;12.40;99.90;;;;;;5043827;28;20244;-85
2022/10/02 06:38:21;;;;;;;2.78;1.48;;;12.50;99.90;;;;;;5038471;28;20191;-85
2022/10/02 06:41:07;;;;;;;5.65;2.00;;;12.50;99.90;;;;;;5036850;28;20635;-85
2022/10/02 06:43:47;;;;;;;5.43;1.40;;;12.50;99.90;;;;;;5039333;28;20194;-85
2022/10/02 06:46:25;;;;;;;8.32;2.08;;;12.40;99.90;;;;;;5041815;28;20200;-85
2022/10/02 06:48:59;;;;;;;3.22;1.52;;;12.50;99.90;;;;;;5033278;28;20237;-84
2022/10/02 06:51:44;;;;;;;3.33;1.80;;;12.50;99.90;;;;;;5045330;28;20187;-85
2022/10/02 06:54:29;;;;;;;4.88;1.92;;;12.50;99.90;;;;;;5042982;28;20242;-85
2022/10/02 06:57:29;;;;;;;3.78;1.70;;;12.50;99.90;;;;;;5045222;28;20203;-85
2022/10/02 07:00:16;;;;;;;4.57;1.52;;;12.50;99.90;;;;;;5040694;28;20278;-85
2022/10/02 07:03:15;;;;;;;2.90;1.60;;;12.50;99.90;;;;;;5044507;28;20639;-84
2022/10/02 07:06:23;;;;;;;6.55;2.08;;;12.50;99.90;;;;;;5040327;28;20590;-85
2022/10/02 07:09:07;;;;;;;6.85;1.75;;;12.50;99.90;;;;;;5027853;28;20345;-85
2022/10/02 07:11:54;;;;;;;5.75;1.90;;;12.50;99.90;;;;;;5031740;28;20552;-85
2022/10/02 07:14:38;;;;;;;4.78;1.70;;;12.60;99.90;;;;;;5045220;28;20198;-85
2022/10/02 07:17:22;;;;;;;3.42;1.70;;;12.60;99.90;;;;;;5028250;28;20279;-85
2022/10/02 07:20:14;;;;;;;3.75;1.65;;;12.60;99.90;;;;;;5041294;28;20567;-86
2022/10/02 07:22:57;;;;;;;6.10;1.60;;;12.70;99.90;;;;;;5025376;28;20491;-85
2022/10/02 07:25:39;;;;;;;4.40;2.03;;;12.80;99.90;;;;;;5037517;28;20202;-84
2022/10/02 07:28:21;;;;;;;5.70;2.05;;;12.80;99.90;;;;;;5029628;28;20294;-85
2022/10/02 07:30:59;;;;;;;4.65;2.13;;;12.80;99.90;;;;;;5033851;28;20195;-85
2022/10/02 07:33:39;;;;;;;3.67;1.70;;;12.80;99.90;;;;;;5038473;28;20312;-86
2022/10/02 07:36:13;;;;;;;3.65;1.95;;;12.80;99.90;;;;;;5034528;28;20229;-86
2022/10/02 07:39:11;;;;;;;3.58;1.65;;;12.90;99.90;;;;;;5039955;28;20217;-85
2022/10/02 07:42:08;;;;;;;5.28;2.00;;;12.90;99.90;;;;;;5039698;28;20273;-85
2022/10/02 07:44:55;;;;;;;6.00;1.80;;;12.90;99.90;;;;;;5035960;28;20193;-85
2022/10/02 07:47:43;;;;;;;5.03;1.65;;;12.90;99.90;;;;;;5031910;28;20668;-86
2022/10/02 07:50:24;;;;;;;5.35;2.13;;;12.90;99.90;;;;;;5035566;28;20211;-86
2022/10/02 07:53:27;;;;;;;4.20;2.20;;;12.90;99.90;;;;;;5033247;28;20194;-85
2022/10/02 07:55:56;;;;;;;4.60;1.85;;;13.00;99.90;;;;;;5036942;28;20206;-85
2022/10/02 07:58:43;;;;;;;4.28;1.95;;;13.00;99.90;;;;;;5036459;28;20205;-85
2022/10/02 08:01:24;;;;;;;4.30;1.42;;;13.10;99.90;;;;;;5028722;28;20222;-86
2022/10/02 08:04:01;;;;;;;5.97;2.05;;;13.10;99.90;;;;;;5030413;28;20568;-86
2022/10/02 08:06:33;;;;;;;4.28;1.80;;;13.10;99.90;;;;;;5031683;28;20214;-85
2022/10/02 08:09:22;;;;;;;4.90;2.08;;;13.20;99.90;;;;;;5035334;28;20198;-86
2022/10/02 08:12:03;;;;;;;7.15;1.88;;;13.20;99.90;;;;;;5035876;28;20202;-86
2022/10/02 08:14:37;;;;;;;5.95;1.92;;;13.20;99.90;;;;;;5034289;28;20202;-85
2022/10/02 08:17:35;;;;;;;3.25;1.88;;;13.20;99.90;;;;;;5027439;28;20236;-86
2022/10/02 08:20:08;;;;;;;4.50;1.70;;;13.30;99.90;;;;;;5030553;28;20574;-86
2022/10/02 08:22:42;;;;;;;4.43;1.85;;;13.30;99.90;;;;;;5032009;28;20226;-86
2022/10/02 08:25:23;;;;;;;7.22;1.80;;;13.40;99.90;;;;;;5025117;28;20199;-86
2022/10/02 08:27:56;;;;;;;5.70;2.22;;;13.50;99.90;;;;;;5029958;28;20209;-85
2022/10/02 08:30:33;;;;;;;5.18;2.10;;;13.40;99.90;;;;;;5036606;28;20270;-86
2022/10/02 08:33:00;;;;;;;5.93;2.00;;;13.50;99.90;;;;;;5028066;28;20213;-85
2022/10/02 08:35:48;;;;;;;4.90;1.70;;;13.60;99.90;;;;;;5034218;28;20742;-86
2022/10/02 08:38:32;;;;;;;4.55;1.90;;;13.60;99.90;;;;;;5031235;28;20226;-86
2022/10/02 08:41:29;;;;;;;3.40;1.85;;;13.50;99.90;;;;;;5034606;28;20576;-86
2022/10/02 08:44:44;;;;;;;4.47;1.90;;;13.60;99.90;;;;;;5035226;28;20205;-86
2022/10/02 08:47:48;;;;;;;6.15;2.03;;;13.60;99.90;;;;;;4969480;28;20204;-86
2022/10/02 08:50:50;;;;;;;3.15;1.60;;;13.70;99.90;;;;;;4973825;28;20223;-86
2022/10/02 08:54:08;;;;;;;3.85;1.67;;;13.90;99.90;;;;;;4972975;28;20211;-86
2022/10/02 08:56:57;;;;;;;4.97;2.00;;;14.10;99.90;;;;;;4877335;29;20212;-86
2022/10/02 09:00:05;;;;;;;7.45;2.53;;;14.20;99.90;;;;;;4872236;29;20594;-86
2022/10/02 09:03:23;;;;;;;5.38;2.10;;;14.10;99.90;;;;;;4872856;29;20317;-86
2022/10/02 09:06:30;;;;;;;3.75;1.88;;;14.00;99.90;;;;;;4839241;29;20237;-86
2022/10/02 09:09:41;;;;;;;3.67;1.98;;;14.00;99.90;;;;;;4840478;29;20209;-87
2022/10/02 09:15:45;;;;;;;3.17;1.73;;;14.00;99.90;;;;;;5103917;27;20544;-87
2022/10/02 09:18:48;;;;;;;5.43;1.83;;;14.10;99.90;;;;;;5085170;28;20592;-87
2022/10/02 09:21:53;;;;;;;3.97;1.83;;;14.20;99.90;;;;;;5079325;28;20199;-87
2022/10/02 09:24:58;;;;;;;4.88;2.25;;;14.10;99.90;;;;;;5086419;28;20781;-87
2022/10/02 09:28:04;;;;;;;3.75;1.80;;;14.20;99.90;;;;;;5084292;28;20193;-87
2022/10/02 09:31:21;;;;;;;4.75;2.25;;;14.50;99.90;;;;;;5077381;28;20556;-87
2022/10/02 09:34:24;;;;;;;3.88;1.83;;;14.60;99.90;;;;;;5091555;28;20220;-87
2022/10/02 09:37:39;;;;;;;4.40;2.38;;;14.80;99.90;;;;;;5088876;28;20326;-86
2022/10/02 09:40:52;;;;;;;4.60;2.17;;;15.00;99.90;;;;;;5093114;28;20246;-87
2022/10/02 09:43:46;;;;;;;4.13;2.08;;;15.20;99.90;;;;;;5000131;28;20210;-87
2022/10/02 09:46:52;;;;;;;3.03;1.70;;;15.30;99.90;;;;;;5002359;28;20251;-88
2022/10/02 09:49:59;;;;;;;4.20;1.70;;;15.30;99.50;;;;;;5004677;28;20207;-87
2022/10/02 09:52:59;;;;;;;4.22;1.83;;;15.20;99.60;;;;;;5007690;28;20203;-87
2022/10/02 09:56:11;;;;;;;5.75;1.70;;;15.10;99.90;;;;;;4997950;28;20294;-88
2022/10/02 09:59:16;;;;;;;3.47;1.88;;;15.10;99.90;;;;;;4965500;28;20199;-88
2022/10/02 10:02:12;;;;;;;3.33;1.70;;;15.00;99.90;;;;;;5007157;28;20253;-88
2022/10/02 10:05:23;;;;;;;3.65;1.65;;;15.10;99.90;;;;;;5001282;28;20215;-88
2022/10/02 10:08:29;;;;;;;3.80;1.70;;;15.30;99.90;;;;;;5005035;28;20213;-88
2022/10/02 10:11:22;;;;;;;3.35;1.80;;;15.50;99.90;;;;;;5001692;28;20687;-88
2022/10/02 10:14:28;;;;;;;7.68;5.63;;;15.60;99.90;;;;;;4994411;28;20220;-88
2022/10/02 10:17:29;;;;;;;2.97;1.58;;;15.70;99.90;;;;;;5001869;28;20199;-88
2022/10/02 10:20:35;;;;;;;2.65;1.45;;;15.70;99.90;;;;;;5032358;28;20203;-88
2022/10/02 10:23:35;;;;;;;2.38;1.50;;;15.70;99.50;;;;;;4991563;28;20204;-88
2022/10/02 10:26:50;;;;;;;3.38;1.80;;;15.80;99.60;;;;;;4985605;28;20197;-87
2022/10/02 10:29:50;;;;;;;2.13;1.40;;;15.90;99.40;;;;;;4907161;29;20246;-87
2022/10/02 10:32:53;;;;;;;1.90;1.52;;;16.20;98.90;;;;;;4943174;28;20211;-88
2022/10/02 10:38:31;;;;;;;4.22;1.55;;;16.40;98.40;;;;;;4946076;29;20212;-88
2022/10/02 10:39:17;;;;;;;1.58;1.48;;;16.50;97.80;;;;;;4845148;29;20209;-88
2022/10/02 10:42:16;;;;;;;2.30;1.50;;;16.40;98.10;;;;;;4837158;29;20229;-88
2022/10/02 10:45:30;;;;;;;3.60;1.40;;;16.60;97.30;;;;;;4805624;29;20233;-88
2022/10/02 10:48:16;;;;;;;2.22;1.33;;;16.50;97.50;;;;;;4769475;30;20267;-88
2022/10/02 10:51:21;;;;;;;1.30;1.20;;;16.60;97.80;;;;;;4772345;30;20216;-88
2022/10/02 11:08:57;;;;;;;2.83;1.20;;;17.60;95.60;;;;;;4756346;30;20200;-89
2022/10/02 11:11:35;;;;;;;1.63;1.20;;;17.90;95.70;;;;;;4772890;30;20204;-86
2022/10/02 11:14:19;;;;;;;1.85;1.20;;;18.10;95.50;;;;;;4775668;30;20238;-87
2022/10/02 11:17:14;;;;;;;1.27;1.17;;;18.30;94.40;;;;;;4783579;30;20218;-87
2022/10/02 11:20:07;;;;;;;3.30;1.67;;;18.40;93.90;;;;;;4792219;29;20207;-86
2022/10/02 11:23:13;;;;;;;2.95;1.50;;;18.30;93.10;;;;;;4839208;29;20216;-87
2022/10/02 11:26:04;;;;;;;1.23;1.10;;;18.10;93.70;;;;;;4877132;29;20230;-87
2022/10/02 11:28:59;;;;;;;3.38;1.27;;;18.00;93.90;;;;;;4873136;29;20207;-86
2022/10/02 11:31:55;;;;;;;1.90;1.33;;;17.80;94.60;;;;;;4949642;28;20668;-86
2022/10/02 11:34:51;;;;;;;2.25;1.52;;;17.90;95.10;;;;;;4938066;29;20252;-86
2022/10/02 11:37:46;;;;;;;1.05;0.90;;;18.10;95.60;;;;;;4936775;29;20230;-86
2022/10/02 11:40:43;;;;;;;0.90;0.90;;;18.40;95.10;;;;;;4943989;29;20213;-86
2022/10/02 11:43:53;;;;;;;1.00;0.90;;;18.60;93.00;;;;;;4929315;29;20288;-86
2022/10/02 11:46:47;;;;;;;4.55;1.02;;;19.00;92.40;;;;;;4994532;28;20268;-86
2022/10/02 11:49:44;;;;;;;1.10;0.50;;;19.20;89.90;;;;;;4998413;28;20211;-86
2022/10/02 11:52:30;;;;;;;1.23;0.90;;;19.20;90.00;;;;;;4992711;28;20294;-86
2022/10/02 11:55:27;;;;;;;1.00;0.68;;;19.40;90.80;;;;;;4994873;28;20214;-86
2022/10/02 11:58:09;;;;;;;0.60;0.60;;;19.60;85.60;;;;;;4991052;28;20228;-86
2022/10/02 12:01:15;;;;;;;1.27;0.90;;;19.60;85.80;;;;;;4989970;28;20200;-86
2022/10/02 12:03:54;;;;;;;0.68;0.68;;;19.80;84.90;;;;;;4944607;28;20726;-86
2022/10/02 12:06:40;;;;;;;2.15;1.50;;;19.70;83.10;;;;;;4989629;28;20216;-87
2022/10/02 12:09:28;;;;;;;1.10;1.10;;;19.80;82.10;;;;;;4990691;28;20192;-86
2022/10/02 12:12:06;;;;;;;2.28;0.90;;;19.70;82.00;;;;;;5036408;28;20200;-86
2022/10/02 12:14:42;;;;;;;2.35;1.65;;;19.60;82.30;;;;;;5055183;28;20237;-86
2022/10/02 12:17:51;;;;;;;0.57;0.50;;;19.60;82.40;;;;;;5050386;28;20190;-86
2022/10/02 12:29:39;;;;;;;0.65;0.65;;;19.20;87.00;;;;;;5052053;28;20252;-87
2022/10/02 12:32:13;;;;;;;0.98;0.70;;;19.40;81.70;;;;;;5052807;28;20202;-87
2022/10/02 12:35:00;;;;;;;1.20;0.75;;;19.50;80.80;;;;;;5052800;28;20226;-87
2022/10/02 12:37:39;;;;;;;0.90;0.90;;;19.70;80.60;;;;;;5058376;28;20189;-86
2022/10/02 12:40:31;;;;;;;0.75;0.75;;;19.80;80.70;;;;;;5058469;28;20716;-86
2022/10/02 12:43:19;;;;;;;1.42;0.80;;;19.80;80.70;;;;;;5049778;28;20203;-87
2022/10/02 12:46:18;;;;;;;0.95;0.60;;;19.60;81.40;;;;;;5056425;28;20229;-86
2022/10/02 12:49:15;;;;;;;2.47;0.70;;;19.50;80.50;;;;;;5052875;28;20553;-86
2022/10/02 12:52:01;;;;;;;0.98;0.65;;;19.30;81.80;;;;;;5053435;28;20586;-87
2022/10/02 12:54:57;;;;;;;0.65;0.65;;;19.40;82.70;;;;;;5054833;28;20316;-87
2022/10/02 12:57:54;;;;;;;0.70;0.70;;;19.60;82.10;;;;;;5049703;28;20202;-86
2022/10/02 13:00:24;;;;;;;1.38;0.90;;;19.80;80.70;;;;;;5045487;28;20199;-87
2022/10/02 13:03:41;;;;;;;0.93;0.90;;;20.00;78.30;;;;;;5041273;28;20191;-86
2022/10/02 13:06:43;;;;;;;0.90;0.90;;;20.00;75.20;;;;;;5046044;28;20300;-86
2022/10/02 13:09:44;;;;;;;0.93;0.93;;;19.90;80.80;;;;;;5052045;28;20198;-86
2022/10/02 13:12:24;;;;;;;0.70;0.70;;;19.80;78.90;;;;;;5055085;28;20285;-86
2022/10/02 13:15:18;;;;;;;0.70;0.70;;;19.60;80.50;;;;;;5041031;28;20657;-86
2022/10/02 13:18:25;;;;;;;0.88;0.80;;;19.40;80.40;;;;;;5054569;28;21582;-86
2022/10/02 13:21:03;;;;;;;1.25;0.80;;;19.30;80.30;;;;;;5055622;28;20209;-88
2022/10/02 13:23:39;;;;;;;1.50;0.75;;;19.40;80.40;;;;;;5042944;28;20194;-86
2022/10/02 13:26:18;;;;;;;1.10;0.95;;;19.20;80.20;;;;;;5061160;28;20203;-86
2022/10/02 13:29:28;;;;;;;0.73;0.73;;;19.00;81.20;;;;;;5046791;28;20194;-86
2022/10/02 13:32:15;;;;;;;1.30;0.93;;;18.90;84.60;;;;;;5007007;28;20654;-86
2022/10/02 13:35:18;;;;;;;1.90;1.30;;;18.60;87.60;;;;;;5050912;28;20581;-86
2022/10/02 13:38:14;;;;;;;1.40;1.30;;;17.90;88.70;;;;;;5048537;28;20320;-88
2022/10/02 13:40:51;;;;;;;2.30;1.50;;;17.10;92.00;;;;;;5050930;28;20205;-89
2022/10/02 13:43:47;;;;;;;3.60;1.60;;;16.30;93.60;;;;;;5041931;28;20276;-88
2022/10/02 13:46:25;;;;;;;2.45;1.48;;;15.70;95.90;;;;;;5050306;28;20213;-89
2022/10/02 13:49:17;;;;;;;5.38;1.70;;;15.40;97.00;;;;;;5052418;28;20197;-88
2022/10/02 13:51:52;;;;;;;3.83;1.17;;;15.10;98.90;;;;;;5043622;28;20199;-89
2022/10/02 13:54:47;;;;;;;1.80;1.63;;;14.70;99.80;;;;;;5050172;28;20218;-88
2022/10/02 13:57:38;;;;;;;1.80;1.60;;;14.30;99.90;;;;;;5039878;28;20275;-88
2022/10/02 14:00:44;;;;;;;1.70;1.60;;;14.10;99.90;;;;;;5047772;28;20289;-88
2022/10/02 14:03:24;;;;;;;2.58;1.75;;;14.10;99.90;;;;;;5051043;28;20653;-87
2022/10/02 14:06:12;;;;;;;7.50;1.70;;;13.90;99.90;;;;;;5056752;28;20236;-88
2022/10/02 14:09:02;;;;;;;1.73;1.50;;;13.90;99.90;;;;;;5055022;28;20277;-89
2022/10/02 14:11:52;;;;;;;2.85;1.55;;;13.70;99.90;;;;;;5050474;28;20634;-88
2022/10/02 14:14:43;;;;;;;1.65;1.40;;;13.80;99.90;;;;;;5048529;28;20304;-89
2022/10/02 14:17:21;;;;;;;1.75;1.35;;;13.80;99.90;;;;;;5047661;28;20204;-88
2022/10/02 14:20:21;;;;;;;2.08;1.30;;;13.70;99.90;;;;;;5053651;28;20525;-88
2022/10/02 14:23:16;;;;;;;2.92;1.58;;;13.70;99.90;;;;;;5051503;28;20190;-88
2022/10/02 14:26:00;;;;;;;3.65;1.60;;;13.60;99.90;;;;;;5049516;28;20301;-88
2022/10/02 14:28:50;;;;;;;4.20;1.17;;;13.50;99.90;;;;;;5055087;28;20193;-87
2022/10/02 14:31:41;;;;;;;1.38;1.15;;;13.40;99.90;;;;;;5046237;28;20203;-88
2022/10/02 14:34:34;;;;;;;1.88;1.40;;;13.30;99.90;;;;;;5049803;28;20274;-88
2022/10/02 14:37:55;;;;;;;1.23;1.13;;;13.20;99.90;;;;;;5053783;28;20657;-87
2022/10/02 14:40:26;;;;;;;2.03;1.50;;;13.10;99.90;;;;;;4990816;28;20663;-88
2022/10/02 14:43:22;;;;;;;2.40;1.40;;;13.10;99.90;;;;;;4992327;28;20279;-87
2022/10/02 14:46:03;;;;;;;2.08;1.67;;;13.10;99.90;;;;;;4997151;28;20208;-88
2022/10/02 14:49:03;;;;;;;1.30;1.20;;;13.10;99.90;;;;;;4986732;28;20261;-88
2022/10/02 14:51:55;;;;;;;1.58;1.40;;;13.10;99.90;;;;;;4999650;28;20206;-87
2022/10/02 14:54:40;;;;;;;2.22;1.50;;;13.10;99.90;;;;;;4997295;28;20227;-88